sensor_id;sensor_type;location;lat;lon;timestamp;pressure;altitude;pressure_sealevel;temperature;humidity
78014;BME280;67222;50.182;8.734;2023-03-14T05:30:15;98315.06;;;9.64;75.45
78014;BME280;67222;50.182;8.734;2023-03-14T05:32:41;98316.41;;;9.66;75.98
78014;BME280;67222;50.182;8.734;2023-03-14T05:35:06;98312.16;;;9.65;76.13
78014;BME280;67222;50.182;8.734;2023-03-14T05:37:32;98315.38;;;9.67;75.71
78014;BME280;67222;50.182;8.734;2023-03-14T05:39:57;98313.53;;;9.68;76.22
78014;BME280;67222;50.182;8.734;2023-03-14T05:42:22;98298.41;;;9.74;74.50
78014;BME280;67222;50.182;8.734;2023-03-14T05:44:48;98304.50;;;9.69;74.92
78014;BME280;67222;50.182;8.734;2023-03-14T05:47:13;98300.22;;;9.68;75.63
78014;BME280;67222;50.182;8.734;2023-03-14T05:49:38;98301.50;;;9.65;75.47
78014;BME280;67222;50.182;8.734;2023-03-14T05:52:04;98309.56;;;9.70;74.94
78014;BME280;67222;50.182;8.734;2023-03-14T05:54:29;98308.13;;;9.63;75.72
78014;BME280;67222;50.182;8.734;2023-03-14T05:56:55;98296.97;;;9.66;75.45
78014;BME280;67222;50.182;8.734;2023-03-14T05:59:20;98310.06;;;9.67;74.77
78014;BME280;67222;50.182;8.734;2023-03-14T06:01:45;98298.28;;;9.63;75.58
78014;BME280;67222;50.182;8.734;2023-03-14T06:04:11;98277.81;;;9.64;75.19
78014;BME280;67222;50.182;8.734;2023-03-14T06:06:36;98277.50;;;9.60;75.55
78014;BME280;67222;50.182;8.734;2023-03-14T06:09:02;98277.22;;;9.57;76.33
78014;BME280;67222;50.182;8.734;2023-03-14T06:11:27;98265.75;;;9.56;76.27
78014;BME280;67222;50.182;8.734;2023-03-14T06:13:52;98275.59;;;9.56;75.91
78014;BME280;67222;50.182;8.734;2023-03-14T06:16:18;98277.75;;;9.59;75.10
78014;BME280;67222;50.182;8.734;2023-03-14T06:18:43;98280.41;;;9.59;74.86
78014;BME280;67222;50.182;8.734;2023-03-14T06:21:08;98267.66;;;9.61;75.11
78014;BME280;67222;50.182;8.734;2023-03-14T06:23:34;98265.56;;;9.63;74.72
78014;BME280;67222;50.182;8.734;2023-03-14T06:25:59;98279.16;;;9.66;74.32
78014;BME280;67222;50.182;8.734;2023-03-14T06:28:24;98278.34;;;9.66;74.75
78014;BME280;67222;50.182;8.734;2023-03-14T06:30:50;98278.63;;;9.64;75.59
78014;BME280;67222;50.182;8.734;2023-03-14T06:33:15;98296.19;;;9.65;74.28
78014;BME280;67222;50.182;8.734;2023-03-14T06:35:40;98282.06;;;9.65;74.47
78014;BME280;67222;50.182;8.734;2023-03-14T06:38:06;98283.94;;;9.64;74.62
78014;BME280;67222;50.182;8.734;2023-03-14T06:40:31;98272.75;;;9.62;74.95
78014;BME280;67222;50.182;8.734;2023-03-14T06:42:56;98280.41;;;9.59;76.22
78014;BME280;67222;50.182;8.734;2023-03-14T06:45:21;98273.75;;;9.56;75.83
78014;BME280;67222;50.182;8.734;2023-03-14T06:47:47;98279.13;;;9.61;75.41
78014;BME280;67222;50.182;8.734;2023-03-14T06:50:12;98284.97;;;9.63;75.10
78014;BME280;67222;50.182;8.734;2023-03-14T06:52:37;98278.31;;;9.61;75.13
78014;BME280;67222;50.182;8.734;2023-03-14T06:55:06;98284.19;;;9.63;75.38
78014;BME280;67222;50.182;8.734;2023-03-14T06:57:32;98276.72;;;9.60;75.19
78014;BME280;67222;50.182;8.734;2023-03-14T06:59:57;98282.84;;;9.60;74.84
78014;BME280;67222;50.182;8.734;2023-03-14T07:02:23;98284.44;;;9.61;75.46
78014;BME280;67222;50.182;8.734;2023-03-14T07:04:48;98287.09;;;9.61;74.69
78014;BME280;67222;50.182;8.734;2023-03-14T07:07:13;98286.03;;;9.62;75.92
78014;BME280;67222;50.182;8.734;2023-03-14T07:09:39;98286.03;;;9.62;74.64
78014;BME280;67222;50.182;8.734;2023-03-14T07:12:04;98280.72;;;9.62;75.08
78014;BME280;67222;50.182;8.734;2023-03-14T07:14:30;98289.25;;;9.64;74.91
78014;BME280;67222;50.182;8.734;2023-03-14T07:16:55;98287.66;;;9.63;75.74
78014;BME280;67222;50.182;8.734;2023-03-14T07:19:20;98292.72;;;9.65;75.26
78014;BME280;67222;50.182;8.734;2023-03-14T07:21:46;98295.13;;;9.66;74.78
78014;BME280;67222;50.182;8.734;2023-03-14T07:24:11;98310.88;;;9.68;74.63
78014;BME280;67222;50.182;8.734;2023-03-14T07:26:37;98292.28;;;9.73;74.56
78014;BME280;67222;50.182;8.734;2023-03-14T07:29:03;98301.03;;;9.68;74.76
78014;BME280;67222;50.182;8.734;2023-03-14T07:31:29;98287.78;;;9.74;74.77
78014;BME280;67222;50.182;8.734;2023-03-14T07:33:54;98300.28;;;9.73;74.41
78014;BME280;67222;50.182;8.734;2023-03-14T07:36:19;98295.00;;;9.78;74.92
78014;BME280;67222;50.182;8.734;2023-03-14T07:38:45;98293.09;;;9.74;75.60
78014;BME280;67222;50.182;8.734;2023-03-14T07:41:10;98287.97;;;9.67;75.36
78014;BME280;67222;50.182;8.734;2023-03-14T07:43:36;98278.31;;;9.61;76.71
78014;BME280;67222;50.182;8.734;2023-03-14T07:46:01;98277.50;;;9.60;76.57
78014;BME280;67222;50.182;8.734;2023-03-14T07:48:26;98276.97;;;9.58;77.11
78014;BME280;67222;50.182;8.734;2023-03-14T07:50:53;98281.72;;;9.56;77.16
78014;BME280;67222;50.182;8.734;2023-03-14T07:53:20;98283.63;;;9.61;77.31
78014;BME280;67222;50.182;8.734;2023-03-14T07:55:46;98299.50;;;9.51;78.67
78014;BME280;67222;50.182;8.734;2023-03-14T07:58:12;98292.75;;;9.43;79.05
78014;BME280;67222;50.182;8.734;2023-03-14T08:00:37;98308.69;;;9.43;79.45
78014;BME280;67222;50.182;8.734;2023-03-14T08:03:02;98296.72;;;9.40;79.46
78014;BME280;67222;50.182;8.734;2023-03-14T08:05:28;98281.84;;;9.45;78.65
78014;BME280;67222;50.182;8.734;2023-03-14T08:07:53;98286.91;;;9.46;78.43
78014;BME280;67222;50.182;8.734;2023-03-14T08:10:18;98286.66;;;9.48;78.99
78014;BME280;67222;50.182;8.734;2023-03-14T08:12:48;98296.59;;;9.52;77.90
78014;BME280;67222;50.182;8.734;2023-03-14T08:15:13;98299.00;;;9.54;77.71
78014;BME280;67222;50.182;8.734;2023-03-14T08:17:38;98294.53;;;9.59;78.08
78014;BME280;67222;50.182;8.734;2023-03-14T08:20:04;98289.00;;;9.66;76.28
78014;BME280;67222;50.182;8.734;2023-03-14T08:22:33;98290.38;;;9.68;77.39
78014;BME280;67222;50.182;8.734;2023-03-14T08:24:58;98284.25;;;9.68;76.76
78014;BME280;67222;50.182;8.734;2023-03-14T08:27:23;98296.19;;;9.65;77.51
78014;BME280;67222;50.182;8.734;2023-03-14T08:29:49;98288.44;;;9.64;78.13
78014;BME280;67222;50.182;8.734;2023-03-14T08:32:14;98291.38;;;9.62;78.67
78014;BME280;67222;50.182;8.734;2023-03-14T08:34:39;98289.25;;;9.64;78.08
78014;BME280;67222;50.182;8.734;2023-03-14T08:37:05;98282.06;;;9.65;77.99
78014;BME280;67222;50.182;8.734;2023-03-14T08:39:30;98297.50;;;9.63;78.88
78014;BME280;67222;50.182;8.734;2023-03-14T08:41:56;98285.06;;;9.68;78.06
78014;BME280;67222;50.182;8.734;2023-03-14T08:44:21;98295.97;;;9.67;79.04
78014;BME280;67222;50.182;8.734;2023-03-14T08:46:46;98295.38;;;9.65;78.33
78014;BME280;67222;50.182;8.734;2023-03-14T08:49:12;98287.22;;;9.71;78.22
78014;BME280;67222;50.182;8.734;2023-03-14T08:51:38;98285.66;;;9.76;78.14
78014;BME280;67222;50.182;8.734;2023-03-14T08:54:03;98301.63;;;9.76;77.97
78014;BME280;67222;50.182;8.734;2023-03-14T08:56:28;98299.31;;;9.84;77.57
78014;BME280;67222;50.182;8.734;2023-03-14T08:58:54;98303.66;;;9.90;77.57
78014;BME280;67222;50.182;8.734;2023-03-14T09:01:19;98301.06;;;10.00;76.87
78014;BME280;67222;50.182;8.734;2023-03-14T09:03:44;98297.72;;;10.10;76.74
78014;BME280;67222;50.182;8.734;2023-03-14T09:06:12;98293.28;;;10.21;75.89
78014;BME280;67222;50.182;8.734;2023-03-14T09:08:37;98298.94;;;10.24;76.03
78014;BME280;67222;50.182;8.734;2023-03-14T09:11:03;98303.50;;;10.29;76.03
78014;BME280;67222;50.182;8.734;2023-03-14T09:13:28;98299.56;;;10.37;76.50
78014;BME280;67222;50.182;8.734;2023-03-14T09:15:56;98315.28;;;10.38;74.63
78014;BME280;67222;50.182;8.734;2023-03-14T09:18:22;98310.47;;;10.35;74.51
78014;BME280;67222;50.182;8.734;2023-03-14T09:20:48;98299.00;;;10.35;75.37
78014;BME280;67222;50.182;8.734;2023-03-14T09:23:14;98309.00;;;10.49;75.03
78014;BME280;67222;50.182;8.734;2023-03-14T09:25:39;98313.13;;;10.67;75.32
78014;BME280;67222;50.182;8.734;2023-03-14T09:28:04;98318.44;;;10.67;74.40
78014;BME280;67222;50.182;8.734;2023-03-14T09:30:30;98315.25;;;10.70;74.73
78014;BME280;67222;50.182;8.734;2023-03-14T09:32:55;98314.22;;;10.71;74.55
78014;BME280;67222;50.182;8.734;2023-03-14T09:35:22;98309.91;;;10.65;73.81
78014;BME280;67222;50.182;8.734;2023-03-14T09:37:47;98307.22;;;10.60;73.33
78014;BME280;67222;50.182;8.734;2023-03-14T09:40:15;98324.41;;;10.42;75.60
78014;BME280;67222;50.182;8.734;2023-03-14T09:42:40;98320.94;;;10.42;77.83
78014;BME280;67222;50.182;8.734;2023-03-14T09:45:11;98304.03;;;10.31;77.49
78014;BME280;67222;50.182;8.734;2023-03-14T09:47:39;98332.56;;;10.36;76.51
78014;BME280;67222;50.182;8.734;2023-03-14T09:50:09;98346.44;;;10.38;78.04
78014;BME280;67222;50.182;8.734;2023-03-14T09:52:39;98343.03;;;10.15;80.20
78014;BME280;67222;50.182;8.734;2023-03-14T09:55:11;98339.56;;;9.88;81.17
78014;BME280;67222;50.182;8.734;2023-03-14T09:57:39;98341.28;;;9.77;82.97
78014;BME280;67222;50.182;8.734;2023-03-14T10:00:32;98342.66;;;9.80;81.80
78014;BME280;67222;50.182;8.734;2023-03-14T10:05:39;98332.56;;;9.82;81.98
78014;BME280;67222;50.182;8.734;2023-03-14T10:08:05;98332.63;;;9.87;79.76
78014;BME280;67222;50.182;8.734;2023-03-14T10:10:31;98324.69;;;9.92;79.49
78014;BME280;67222;50.182;8.734;2023-03-14T10:12:59;98322.31;;;9.95;79.42
78014;BME280;67222;50.182;8.734;2023-03-14T10:15:30;98323.41;;;9.99;80.45
78014;BME280;67222;50.182;8.734;2023-03-14T10:17:58;98312.59;;;10.06;79.53
78014;BME280;67222;50.182;8.734;2023-03-14T10:20:33;98319.56;;;10.12;79.55
78014;BME280;67222;50.182;8.734;2023-03-14T10:25:37;98311.19;;;10.25;78.71
78014;BME280;67222;50.182;8.734;2023-03-14T10:28:04;98315.50;;;10.31;77.36
78014;BME280;67222;50.182;8.734;2023-03-14T10:30:44;98306.75;;;10.36;77.83
78014;BME280;67222;50.182;8.734;2023-03-14T10:35:37;98304.69;;;10.43;77.39
78014;BME280;67222;50.182;8.734;2023-03-14T10:38:03;98305.25;;;10.50;76.36
78014;BME280;67222;50.182;8.734;2023-03-14T10:40:40;98313.00;;;10.52;76.15
78014;BME280;67222;50.182;8.734;2023-03-14T10:43:11;98307.22;;;10.60;74.87
78014;BME280;67222;50.182;8.734;2023-03-14T10:45:40;98303.22;;;10.63;77.04
78014;BME280;67222;50.182;8.734;2023-03-14T10:48:19;98302.63;;;10.55;77.49
78014;BME280;67222;50.182;8.734;2023-03-14T10:56:05;98315.63;;;10.20;80.15
78014;BME280;67222;50.182;8.734;2023-03-14T10:58:35;98308.88;;;10.07;81.03
78014;BME280;67222;50.182;8.734;2023-03-14T11:01:31;98323.25;;;10.06;81.92
78014;BME280;67222;50.182;8.734;2023-03-14T11:04:18;98308.06;;;10.07;81.85
78014;BME280;67222;50.182;8.734;2023-03-14T11:09:42;98307.69;;;9.98;82.97
78014;BME280;67222;50.182;8.734;2023-03-14T11:15:22;98310.75;;;9.85;85.04
78014;BME280;67222;50.182;8.734;2023-03-14T11:18:33;98315.53;;;9.83;86.00
78014;BME280;67222;50.182;8.734;2023-03-14T11:27:16;98322.69;;;9.55;86.90
78014;BME280;67222;50.182;8.734;2023-03-14T11:30:05;98334.09;;;9.51;87.85
78014;BME280;67222;50.182;8.734;2023-03-14T11:33:04;98331.34;;;9.46;88.20
78014;BME280;67222;50.182;8.734;2023-03-14T11:35:37;98326.78;;;9.41;89.59
78014;BME280;67222;50.182;8.734;2023-03-14T11:40:50;98330.88;;;9.49;89.52
78014;BME280;67222;50.182;8.734;2023-03-14T11:43:40;98332.16;;;9.46;89.09
78014;BME280;67222;50.182;8.734;2023-03-14T11:46:16;98325.59;;;9.54;89.60
78014;BME280;67222;50.182;8.734;2023-03-14T11:49:11;98328.31;;;9.59;89.21
78014;BME280;67222;50.182;8.734;2023-03-14T11:51:41;98323.28;;;9.62;88.86
78014;BME280;67222;50.182;8.734;2023-03-14T11:54:18;98320.13;;;9.65;88.58
78014;BME280;67222;50.182;8.734;2023-03-14T11:56:58;98315.69;;;9.71;87.57
78014;BME280;67222;50.182;8.734;2023-03-14T11:59:28;98312.56;;;9.79;86.77
78014;BME280;67222;50.182;8.734;2023-03-14T12:02:01;98314.47;;;9.84;88.80
78014;BME280;67222;50.182;8.734;2023-03-14T12:10:40;98333.06;;;9.79;87.60
78014;BME280;67222;50.182;8.734;2023-03-14T12:13:13;98462.16;;;9.59;89.66
78014;BME280;67222;50.182;8.734;2023-03-14T12:15:41;98447.13;;;8.64;88.76
78014;BME280;67222;50.182;8.734;2023-03-14T12:18:29;98452.66;;;8.46;89.01
78014;BME280;67222;50.182;8.734;2023-03-14T12:21:16;98460.06;;;8.44;90.53
78014;BME280;67222;50.182;8.734;2023-03-14T12:24:00;98468.66;;;8.23;86.45
78014;BME280;67222;50.182;8.734;2023-03-14T12:26:27;98495.47;;;7.98;86.80
78014;BME280;67222;50.182;8.734;2023-03-14T12:44:39;98562.06;;;8.08;84.66
78014;BME280;67222;50.182;8.734;2023-03-14T12:49:44;98579.94;;;8.12;82.80
78014;BME280;67222;50.182;8.734;2023-03-14T12:52:21;98585.13;;;8.19;83.49
78014;BME280;67222;50.182;8.734;2023-03-14T12:54:52;98601.28;;;8.29;83.71
78014;BME280;67222;50.182;8.734;2023-03-14T12:57:34;98607.19;;;8.43;83.51
78014;BME280;67222;50.182;8.734;2023-03-14T13:02:43;98635.47;;;8.37;78.67
78014;BME280;67222;50.182;8.734;2023-03-14T13:05:18;98651.06;;;8.22;79.97
78014;BME280;67222;50.182;8.734;2023-03-14T13:10:18;98673.09;;;8.11;80.27
78014;BME280;67222;50.182;8.734;2023-03-14T13:15:38;98672.41;;;8.27;76.53
78014;BME280;67222;50.182;8.734;2023-03-14T13:20:38;98693.38;;;8.17;78.75
78014;BME280;67222;50.182;8.734;2023-03-14T13:23:18;98707.63;;;8.23;81.35
78014;BME280;67222;50.182;8.734;2023-03-14T13:25:44;98718.00;;;8.36;78.85
78014;BME280;67222;50.182;8.734;2023-03-14T13:28:10;98715.84;;;8.44;77.83
78014;BME280;67222;50.182;8.734;2023-03-14T13:30:41;98715.25;;;8.54;78.79
78014;BME280;67222;50.182;8.734;2023-03-14T13:33:12;98736.38;;;8.72;76.06
78014;BME280;67222;50.182;8.734;2023-03-14T13:35:47;98734.97;;;8.93;76.39
78014;BME280;67222;50.182;8.734;2023-03-14T13:38:15;98737.69;;;9.10;74.85
78014;BME280;67222;50.182;8.734;2023-03-14T13:40:42;98750.31;;;9.43;73.79
78014;BME280;67222;50.182;8.734;2023-03-14T13:43:15;98764.03;;;9.52;71.92
78014;BME280;67222;50.182;8.734;2023-03-14T13:45:44;98760.56;;;9.80;72.72
78014;BME280;67222;50.182;8.734;2023-03-14T13:48:12;98767.97;;;9.78;72.23
78014;BME280;67222;50.182;8.734;2023-03-14T13:50:37;98779.47;;;9.66;72.80
78014;BME280;67222;50.182;8.734;2023-03-14T13:53:03;98789.38;;;9.54;74.33
78014;BME280;67222;50.182;8.734;2023-03-14T13:55:29;98807.38;;;9.24;73.23
78014;BME280;67222;50.182;8.734;2023-03-14T13:57:54;98822.22;;;8.61;74.55
78014;BME280;67222;50.182;8.734;2023-03-14T14:00:23;98830.06;;;8.44;76.19
78014;BME280;67222;50.182;8.734;2023-03-14T14:02:53;98838.13;;;8.49;74.98
78014;BME280;67222;50.182;8.734;2023-03-14T14:05:19;98856.88;;;8.66;74.87
78014;BME280;67222;50.182;8.734;2023-03-14T14:07:44;98854.91;;;8.73;72.66
78014;BME280;67222;50.182;8.734;2023-03-14T14:10:12;98858.03;;;8.70;71.39
78014;BME280;67222;50.182;8.734;2023-03-14T14:13:02;98861.38;;;8.66;70.85
78014;BME280;67222;50.182;8.734;2023-03-14T14:15:31;98871.44;;;8.75;74.65
78014;BME280;67222;50.182;8.734;2023-03-14T14:18:01;98878.81;;;8.73;74.57
78014;BME280;67222;50.182;8.734;2023-03-14T14:20:37;98910.38;;;8.70;72.42
78014;BME280;67222;50.182;8.734;2023-03-14T14:23:05;98926.84;;;8.48;73.23
78014;BME280;67222;50.182;8.734;2023-03-14T14:25:32;98944.03;;;7.98;74.40
78014;BME280;67222;50.182;8.734;2023-03-14T14:27:58;98962.34;;;7.87;75.36
78014;BME280;67222;50.182;8.734;2023-03-14T14:30:30;98975.59;;;7.69;76.58
78014;BME280;67222;50.182;8.734;2023-03-14T14:33:11;98985.25;;;7.64;75.60
78014;BME280;67222;50.182;8.734;2023-03-14T14:35:38;98995.22;;;7.43;76.06
78014;BME280;67222;50.182;8.734;2023-03-14T14:38:11;99002.28;;;7.31;76.41
78014;BME280;67222;50.182;8.734;2023-03-14T14:40:47;99008.63;;;7.30;76.51
78014;BME280;67222;50.182;8.734;2023-03-14T14:43:19;99010.19;;;7.13;76.32
78014;BME280;67222;50.182;8.734;2023-03-14T14:45:48;99023.13;;;7.27;76.12
78014;BME280;67222;50.182;8.734;2023-03-14T14:48:14;99032.34;;;7.43;76.51
78014;BME280;67222;50.182;8.734;2023-03-14T14:50:54;99030.91;;;7.47;75.21
78014;BME280;67222;50.182;8.734;2023-03-14T14:53:40;99042.00;;;7.38;73.92
78014;BME280;67222;50.182;8.734;2023-03-14T14:56:17;99051.75;;;7.44;75.64
78014;BME280;67222;50.182;8.734;2023-03-14T14:58:47;99062.56;;;7.42;73.76
78014;BME280;67222;50.182;8.734;2023-03-14T15:01:22;99066.72;;;7.32;72.47
78014;BME280;67222;50.182;8.734;2023-03-14T15:03:51;99062.47;;;7.31;73.02
78014;BME280;67222;50.182;8.734;2023-03-14T15:06:17;99072.63;;;7.34;74.92
78014;BME280;67222;50.182;8.734;2023-03-14T15:08:44;99067.09;;;7.35;75.94
78014;BME280;67222;50.182;8.734;2023-03-14T15:11:24;99086.63;;;7.41;74.08
78014;BME280;67222;50.182;8.734;2023-03-14T15:13:53;99096.06;;;7.37;72.78
78014;BME280;67222;50.182;8.734;2023-03-14T15:16:26;99091.19;;;7.34;72.91
78014;BME280;67222;50.182;8.734;2023-03-14T15:18:58;99099.91;;;7.41;72.28
78014;BME280;67222;50.182;8.734;2023-03-14T15:21:24;99113.38;;;7.39;73.21
78014;BME280;67222;50.182;8.734;2023-03-14T15:23:50;99130.38;;;7.32;75.25
78014;BME280;67222;50.182;8.734;2023-03-14T15:26:21;99134.13;;;7.17;75.92
78014;BME280;67222;50.182;8.734;2023-03-14T15:28:47;99156.19;;;7.11;75.98
78014;BME280;67222;50.182;8.734;2023-03-14T15:31:14;99161.72;;;7.10;77.19
78014;BME280;67222;50.182;8.734;2023-03-14T15:33:40;99161.63;;;6.78;77.36
78014;BME280;67222;50.182;8.734;2023-03-14T15:36:10;99158.81;;;6.66;78.03
78014;BME280;67222;50.182;8.734;2023-03-14T15:38:41;99165.81;;;6.48;78.79
78014;BME280;67222;50.182;8.734;2023-03-14T15:41:09;99182.56;;;6.35;79.78
78014;BME280;67222;50.182;8.734;2023-03-14T15:43:34;99191.91;;;6.31;79.92
78014;BME280;67222;50.182;8.734;2023-03-14T15:46:00;99204.13;;;6.45;80.58
78014;BME280;67222;50.182;8.734;2023-03-14T15:48:25;99201.72;;;6.24;78.04
78014;BME280;67222;50.182;8.734;2023-03-14T15:50:50;99214.72;;;6.25;80.64
78014;BME280;67222;50.182;8.734;2023-03-14T15:53:16;99216.34;;;6.26;79.57
78014;BME280;67222;50.182;8.734;2023-03-14T15:55:41;99231.44;;;6.26;79.47
78014;BME280;67222;50.182;8.734;2023-03-14T15:58:11;99235.69;;;6.27;79.66
78014;BME280;67222;50.182;8.734;2023-03-14T16:00:39;99243.66;;;6.20;79.02
78014;BME280;67222;50.182;8.734;2023-03-14T16:03:04;99254.66;;;6.04;78.24
78014;BME280;67222;50.182;8.734;2023-03-14T16:05:30;99254.66;;;6.04;79.02
78014;BME280;67222;50.182;8.734;2023-03-14T16:07:55;99261.38;;;6.00;78.84
78014;BME280;67222;50.182;8.734;2023-03-14T16:10:20;99270.53;;;5.97;79.06
78014;BME280;67222;50.182;8.734;2023-03-14T16:12:45;99264.63;;;6.02;80.84
78014;BME280;67222;50.182;8.734;2023-03-14T16:15:11;99280.09;;;5.98;79.62
78014;BME280;67222;50.182;8.734;2023-03-14T16:17:36;99277.03;;;6.01;80.64
78014;BME280;67222;50.182;8.734;2023-03-14T16:20:04;99273.78;;;5.99;80.78
78014;BME280;67222;50.182;8.734;2023-03-14T16:22:30;99277.84;;;6.02;80.77
78014;BME280;67222;50.182;8.734;2023-03-14T16:25:05;99279.06;;;5.99;80.04
78014;BME280;67222;50.182;8.734;2023-03-14T16:27:31;99280.09;;;5.98;81.05
78014;BME280;67222;50.182;8.734;2023-03-14T16:29:57;99287.41;;;6.03;81.34
78014;BME280;67222;50.182;8.734;2023-03-14T16:32:24;99289.03;;;6.04;80.88
78014;BME280;67222;50.182;8.734;2023-03-14T16:34:50;99286.75;;;5.88;80.33
78014;BME280;67222;50.182;8.734;2023-03-14T16:37:15;99296.31;;;5.89;81.25
78014;BME280;67222;50.182;8.734;2023-03-14T16:39:41;99304.66;;;5.79;81.72
78014;BME280;67222;50.182;8.734;2023-03-14T16:42:06;99308.53;;;5.83;80.99
78014;BME280;67222;50.182;8.734;2023-03-14T16:44:32;99309.34;;;5.77;81.37
78014;BME280;67222;50.182;8.734;2023-03-14T16:46:57;99332.28;;;5.70;80.63
78014;BME280;67222;50.182;8.734;2023-03-14T16:49:22;99335.94;;;5.62;80.91
78014;BME280;67222;50.182;8.734;2023-03-14T16:51:48;99337.75;;;5.62;80.27
78014;BME280;67222;50.182;8.734;2023-03-14T16:54:13;99342.66;;;5.65;81.22
78014;BME280;67222;50.182;8.734;2023-03-14T16:56:38;99358.09;;;5.61;81.12
78014;BME280;67222;50.182;8.734;2023-03-14T16:59:03;99356.69;;;5.65;80.03
78014;BME280;67222;50.182;8.734;2023-03-14T17:01:29;99372.97;;;5.62;79.88
78014;BME280;67222;50.182;8.734;2023-03-14T17:03:54;99382.31;;;5.58;80.25
78014;BME280;67222;50.182;8.734;2023-03-14T17:06:22;99389.63;;;5.63;80.57
78014;BME280;67222;50.182;8.734;2023-03-14T17:08:51;99395.69;;;5.57;80.00
78014;BME280;67222;50.182;8.734;2023-03-14T17:11:17;99403.06;;;5.61;80.20
78014;BME280;67222;50.182;8.734;2023-03-14T17:13:42;99402.88;;;5.28;77.66
78014;BME280;67222;50.182;8.734;2023-03-14T17:16:08;99403.06;;;5.27;78.21
78014;BME280;67222;50.182;8.734;2023-03-14T17:18:35;99413.78;;;5.18;79.86
78014;BME280;67222;50.182;8.734;2023-03-14T17:21:01;99413.47;;;5.28;80.27
78014;BME280;67222;50.182;8.734;2023-03-14T17:23:28;99404.03;;;5.19;78.82
78014;BME280;67222;50.182;8.734;2023-03-14T17:25:54;99414.19;;;5.15;78.38
78014;BME280;67222;50.182;8.734;2023-03-14T17:28:21;99415.16;;;5.08;77.69
78014;BME280;67222;50.182;8.734;2023-03-14T17:30:47;99432.63;;;5.09;78.64
78014;BME280;67222;50.182;8.734;2023-03-14T17:33:12;99443.06;;;4.89;78.28
78014;BME280;67222;50.182;8.734;2023-03-14T17:35:38;99456.13;;;4.97;79.23
78014;BME280;67222;50.182;8.734;2023-03-14T17:38:03;99461.41;;;4.97;79.04
78014;BME280;67222;50.182;8.734;2023-03-14T17:40:29;99471.09;;;4.90;79.02
78014;BME280;67222;50.182;8.734;2023-03-14T17:42:54;99476.81;;;4.94;80.07
78014;BME280;67222;50.182;8.734;2023-03-14T17:45:20;99488.16;;;4.88;79.16
78014;BME280;67222;50.182;8.734;2023-03-14T17:47:45;99500.13;;;4.83;79.49
78014;BME280;67222;50.182;8.734;2023-03-14T17:50:11;99499.22;;;4.76;79.77
78014;BME280;67222;50.182;8.734;2023-03-14T17:52:37;99499.47;;;4.81;78.90
78014;BME280;67222;50.182;8.734;2023-03-14T17:55:03;99516.31;;;4.80;79.52
78014;BME280;67222;50.182;8.734;2023-03-14T17:57:29;99519.22;;;4.85;80.08
78014;BME280;67222;50.182;8.734;2023-03-14T17:59:54;99525.56;;;4.70;80.04
78014;BME280;67222;50.182;8.734;2023-03-14T18:02:21;99533.69;;;4.68;79.87
78014;BME280;67222;50.182;8.734;2023-03-14T18:04:47;99540.59;;;4.69;80.52
78014;BME280;67222;50.182;8.734;2023-03-14T18:07:12;99545.97;;;4.61;78.97
78014;BME280;67222;50.182;8.734;2023-03-14T18:09:41;99545.97;;;4.61;80.05
78014;BME280;67222;50.182;8.734;2023-03-14T18:12:06;99553.09;;;4.61;79.34
78014;BME280;67222;50.182;8.734;2023-03-14T18:14:32;99556.72;;;4.60;79.52
78014;BME280;67222;50.182;8.734;2023-03-14T18:16:58;99568.28;;;4.59;79.29
78014;BME280;67222;50.182;8.734;2023-03-14T18:19:23;99573.66;;;4.65;79.14
78014;BME280;67222;50.182;8.734;2023-03-14T18:21:49;99575.47;;;4.65;77.67
78014;BME280;67222;50.182;8.734;2023-03-14T18:24:16;99580.50;;;4.60;78.47
78014;BME280;67222;50.182;8.734;2023-03-14T18:26:41;99597.69;;;4.70;79.62
78014;BME280;67222;50.182;8.734;2023-03-14T18:29:07;99606.94;;;4.81;79.22
78014;BME280;67222;50.182;8.734;2023-03-14T18:31:32;99604.19;;;4.89;80.17
78014;BME280;67222;50.182;8.734;2023-03-14T18:33:59;99610.16;;;4.98;80.27
78014;BME280;67222;50.182;8.734;2023-03-14T18:36:24;99613.81;;;4.97;78.78
78014;BME280;67222;50.182;8.734;2023-03-14T18:38:50;99616.44;;;4.97;79.54
78014;BME280;67222;50.182;8.734;2023-03-14T18:41:20;99628.03;;;4.96;78.62
78014;BME280;67222;50.182;8.734;2023-03-14T18:43:47;99635.94;;;4.96;78.25
78014;BME280;67222;50.182;8.734;2023-03-14T18:46:12;99640.44;;;4.80;76.39
78014;BME280;67222;50.182;8.734;2023-03-14T18:48:38;99644.38;;;4.84;76.52
78014;BME280;67222;50.182;8.734;2023-03-14T18:51:07;99644.63;;;4.90;76.95
78014;BME280;67222;50.182;8.734;2023-03-14T18:53:32;99657.75;;;4.83;76.83
78014;BME280;67222;50.182;8.734;2023-03-14T18:55:58;99651.91;;;4.88;79.05
78014;BME280;67222;50.182;8.734;2023-03-14T18:58:24;99663.69;;;4.85;79.76
78014;BME280;67222;50.182;8.734;2023-03-14T19:01:00;99661.16;;;4.98;79.18
78014;BME280;67222;50.182;8.734;2023-03-14T19:03:26;99662.56;;;4.94;79.47
78014;BME280;67222;50.182;8.734;2023-03-14T19:05:53;99664.09;;;5.03;79.03
78014;BME280;67222;50.182;8.734;2023-03-14T19:08:19;99660.50;;;5.11;79.37
78014;BME280;67222;50.182;8.734;2023-03-14T19:10:51;99658.63;;;5.26;78.58
78014;BME280;67222;50.182;8.734;2023-03-14T19:13:21;99669.06;;;5.13;79.85
78014;BME280;67222;50.182;8.734;2023-03-14T19:15:47;99673.16;;;5.15;80.01
78014;BME280;67222;50.182;8.734;2023-03-14T19:18:13;99682.41;;;5.05;76.72
78014;BME280;67222;50.182;8.734;2023-03-14T19:20:40;99682.69;;;4.95;76.27
78014;BME280;67222;50.182;8.734;2023-03-14T19:23:06;99692.16;;;5.04;75.59
78014;BME280;67222;50.182;8.734;2023-03-14T19:25:31;99698.25;;;5.05;76.58
78014;BME280;67222;50.182;8.734;2023-03-14T19:27:57;99708.72;;;4.98;78.25
78014;BME280;67222;50.182;8.734;2023-03-14T19:30:22;99711.69;;;4.89;77.31
78014;BME280;67222;50.182;8.734;2023-03-14T19:32:48;99712.38;;;4.97;77.98
78014;BME280;67222;50.182;8.734;2023-03-14T19:35:13;99723.50;;;4.93;77.35
78014;BME280;67222;50.182;8.734;2023-03-14T19:37:39;99731.16;;;5.02;76.70
78014;BME280;67222;50.182;8.734;2023-03-14T19:40:05;99731.78;;;5.04;78.87
78014;BME280;67222;50.182;8.734;2023-03-14T19:42:31;99737.13;;;5.11;78.04
78014;BME280;67222;50.182;8.734;2023-03-14T19:44:56;99734.97;;;5.00;77.05
78014;BME280;67222;50.182;8.734;2023-03-14T19:47:23;99738.22;;;5.02;78.03